Time;durP1;ratioP1;P1;durP2;ratioP2;P2;SDS_P1;SDS_P2;PMS_P1;PMS_P2;Temp;Humidity;BMP_temperature;BMP_pressure;BME280_temperature;BME280_humidity;BME280_pressure;Samples;Min_cycle;Max_cycle;Signal;HPM_P1;HPM_P2
2022/06/27 00:03:13;;;;;;;9.73;8.80;;;19.20;1.00;;;;;;8368652;28;20205;-68
2022/06/27 00:07:14;;;;;;;11.30;10.10;;;19.20;99.90;;;;;;8370153;28;20173;-66
2022/06/27 00:11:19;;;;;;;10.50;9.50;;;19.30;99.90;;;;;;8373357;28;20184;-68
2022/06/27 00:15:19;;;;;;;10.57;9.53;;;19.30;99.90;;;;;;8362673;28;20221;-67
2022/06/27 00:19:20;;;;;;;10.93;9.83;;;19.30;99.90;;;;;;8363732;28;20174;-65
2022/06/27 00:23:21;;;;;;;10.80;9.33;;;19.30;99.90;;;;;;8362277;28;20228;-68
2022/06/27 00:27:22;;;;;;;10.57;9.57;;;19.20;99.90;;;;;;8369647;28;20198;-69
2022/06/27 00:31:23;;;;;;;12.17;10.97;;;19.10;99.90;;;;;;8371811;28;20181;-67
2022/06/27 00:35:23;;;;;;;11.20;9.83;;;19.00;99.90;;;;;;8370151;28;20598;-66
2022/06/27 00:39:24;;;;;;;10.40;9.47;;;18.90;99.90;;;;;;8374952;28;20177;-67
2022/06/27 00:43:25;;;;;;;10.70;9.60;;;18.90;99.90;;;;;;8377171;28;20216;-67
2022/06/27 00:47:26;;;;;;;10.70;9.47;;;18.70;99.90;;;;;;8376871;28;20178;-67
2022/06/27 00:51:27;;;;;;;11.23;10.23;;;18.60;1.00;;;;;;8375472;28;20261;-68
2022/06/27 00:55:29;;;;;;;11.37;9.80;;;18.50;1.00;;;;;;8381417;28;20192;-66
2022/06/27 00:59:30;;;;;;;11.60;9.30;;;18.40;1.00;;;;;;8369990;28;20186;-69
2022/06/27 01:03:31;;;;;;;10.77;9.77;;;18.30;1.00;;;;;;8373624;28;20212;-68
2022/06/27 01:07:32;;;;;;;11.00;9.97;;;18.20;67.30;;;;;;8379240;28;20181;-69
2022/06/27 01:11:33;;;;;;;11.30;10.27;;;18.20;99.90;;;;;;8373435;28;20181;-68
2022/06/27 01:15:33;;;;;;;11.90;10.70;;;18.10;99.90;;;;;;8373074;28;20297;-68
2022/06/27 01:19:34;;;;;;;11.07;10.07;;;18.00;99.90;;;;;;8371609;28;20247;-66
2022/06/27 01:23:36;;;;;;;12.87;11.57;;;17.90;99.90;;;;;;8377681;28;20237;-67
2022/06/27 01:27:36;;;;;;;11.03;10.00;;;17.80;99.90;;;;;;8379214;28;20193;-68
2022/06/27 01:31:38;;;;;;;11.90;10.80;;;17.80;99.90;;;;;;8382193;28;20173;-69
2022/06/27 01:35:39;;;;;;;11.37;10.37;;;17.80;99.90;;;;;;8389606;28;20278;-68
2022/06/27 01:39:40;;;;;;;11.67;10.67;;;17.80;99.90;;;;;;8373288;28;20189;-68
2022/06/27 01:43:41;;;;;;;11.57;10.47;;;17.70;99.90;;;;;;8379443;28;20229;-69
2022/06/27 01:47:41;;;;;;;12.70;11.43;;;17.60;99.90;;;;;;8380664;28;20181;-65
2022/06/27 01:51:45;;;;;;;13.10;11.80;;;17.60;99.90;;;;;;8376846;28;20172;-68
2022/06/27 01:55:46;;;;;;;14.63;13.07;;;17.50;99.90;;;;;;8371811;28;20197;-68
2022/06/27 01:59:51;;;;;;;13.20;11.80;;;17.50;99.90;;;;;;8370170;28;20239;-67
2022/06/27 02:03:53;;;;;;;14.90;12.37;;;17.50;99.90;;;;;;8375033;28;20548;-68
2022/06/27 02:07:57;;;;;;;12.93;11.63;;;17.40;99.90;;;;;;8377710;28;20251;-67
2022/06/27 02:11:57;;;;;;;11.70;10.60;;;17.40;99.90;;;;;;8368732;28;20216;-68
2022/06/27 02:16:11;;;;;;;12.10;11.00;;;17.30;99.90;;;;;;8369413;28;20185;-69
2022/06/27 02:20:13;;;;;;;12.70;11.57;;;17.20;99.90;;;;;;8370585;28;20186;-69
2022/06/27 02:24:15;;;;;;;12.00;10.90;;;17.10;99.90;;;;;;8363829;28;20217;-69
2022/06/27 02:28:17;;;;;;;12.53;11.30;;;17.10;99.90;;;;;;8365432;28;20223;-69
2022/06/27 02:32:18;;;;;;;11.67;10.57;;;17.00;99.90;;;;;;8367980;28;20324;-69
2022/06/27 02:36:28;;;;;;;13.03;11.77;;;16.90;99.90;;;;;;8370497;28;20192;-71
2022/06/27 02:40:29;;;;;;;16.20;14.17;;;16.80;99.90;;;;;;8375665;28;20268;-70
2022/06/27 02:44:31;;;;;;;15.90;14.40;;;16.90;99.90;;;;;;8372027;28;20212;-67
2022/06/27 02:48:33;;;;;;;16.57;14.73;;;16.90;99.90;;;;;;8378335;28;20197;-67
2022/06/27 02:52:40;;;;;;;17.63;15.97;;;17.00;99.90;;;;;;8373321;28;20191;-68
2022/06/27 02:56:56;;;;;;;18.97;17.03;;;17.20;99.90;;;;;;8375497;28;20182;-70
2022/06/27 03:00:58;;;;;;;17.07;15.27;;;17.20;99.90;;;;;;8369767;28;20189;-69
2022/06/27 03:05:00;;;;;;;18.87;16.97;;;17.30;99.90;;;;;;8366662;28;20213;-72
2022/06/27 03:09:01;;;;;;;17.57;15.87;;;17.30;99.90;;;;;;8389712;28;20239;-71
2022/06/27 03:13:01;;;;;;;15.47;13.97;;;17.40;99.90;;;;;;8375594;28;20215;-71
2022/06/27 03:17:03;;;;;;;16.03;14.43;;;17.50;99.90;;;;;;8376798;28;20187;-71
2022/06/27 03:21:03;;;;;;;13.03;11.83;;;17.80;99.90;;;;;;8372626;28;20271;-71
2022/06/27 03:25:05;;;;;;;11.47;10.33;;;18.40;99.90;;;;;;8376019;28;20250;-72
2022/06/27 03:29:06;;;;;;;14.40;12.90;;;19.10;99.90;;;;;;8377239;28;20212;-70
2022/06/27 03:33:07;;;;;;;12.07;11.07;;;19.90;99.90;;;;;;8371388;28;20216;-71
2022/06/27 03:37:08;;;;;;;10.93;9.93;;;20.70;99.90;;;;;;8378119;28;20186;-71
2022/06/27 03:41:08;;;;;;;10.80;9.73;;;21.60;1.00;;;;;;8363027;28;20209;-71
2022/06/27 03:45:10;;;;;;;9.03;8.13;;;22.30;99.90;;;;;;8368304;28;20544;-71
2022/06/27 03:53:30;;;;;;;10.63;8.73;;;23.70;64.30;;;;;;8365680;28;20430;-71
2022/06/27 03:57:30;;;;;;;9.57;8.60;;;24.00;1.00;;;;;;8370656;28;20185;-70
2022/06/27 04:01:31;;;;;;;10.17;9.17;;;24.50;1.00;;;;;;8372763;28;20190;-71
2022/06/27 04:05:32;;;;;;;10.77;8.63;;;25.00;1.00;;;;;;8385135;28;20212;-72
2022/06/27 04:09:33;;;;;;;10.90;9.77;;;25.60;99.90;;;;;;8386190;28;20192;-72
2022/06/27 04:13:34;;;;;;;9.20;8.30;;;26.20;99.90;;;;;;8373197;28;20201;-72
2022/06/27 04:17:35;;;;;;;9.23;8.33;;;26.70;99.90;;;;;;8370719;28;20181;-70
2022/06/27 04:21:36;;;;;;;8.23;7.43;;;27.10;99.90;;;;;;8374584;28;20185;-71
2022/06/27 04:25:36;;;;;;;9.70;8.00;;;27.50;99.90;;;;;;8378801;28;20220;-74
2022/06/27 04:29:37;;;;;;;7.28;6.65;;;27.90;99.90;;;;;;8372915;28;20267;-65
2022/06/27 04:33:38;;;;;;;8.50;7.70;;;28.30;99.90;;;;;;8380979;28;20181;-72
2022/06/27 04:37:42;;;;;;;8.60;7.47;;;28.60;99.90;;;;;;8386018;28;20187;-70
2022/06/27 04:41:44;;;;;;;8.65;7.70;;;28.90;99.90;;;;;;8379750;28;20190;-64
2022/06/27 04:45:45;;;;;;;10.50;8.25;;;29.00;89.30;;;;;;8379313;28;20719;-66
2022/06/27 04:49:46;;;;;;;8.93;8.02;;;28.90;88.90;;;;;;8379659;28;20192;-65
2022/06/27 04:53:48;;;;;;;9.05;8.15;;;28.90;95.50;;;;;;8374555;28;20177;-72
2022/06/27 04:57:49;;;;;;;8.20;6.88;;;29.20;84.50;;;;;;8376366;28;20186;-68
2022/06/27 05:01:50;;;;;;;11.60;8.15;;;29.30;80.90;;;;;;8371815;28;20178;-69
2022/06/27 05:05:51;;;;;;;10.18;8.15;;;29.30;51.30;;;;;;8373959;28;20209;-69
2022/06/27 05:09:56;;;;;;;10.15;8.02;;;29.10;61.70;;;;;;8370599;28;20638;-71
2022/06/27 05:13:57;;;;;;;8.43;7.60;;;29.10;74.50;;;;;;8380318;28;20184;-68
2022/06/27 05:17:58;;;;;;;12.27;7.40;;;28.40;97.40;;;;;;8380688;28;20203;-66
2022/06/27 05:21:58;;;;;;;8.43;7.35;;;27.60;99.90;;;;;;8374131;28;20215;-65
2022/06/27 05:26:02;;;;;;;9.18;8.18;;;27.00;99.90;;;;;;8379965;28;20173;-69
2022/06/27 05:30:06;;;;;;;14.43;7.43;;;26.40;99.90;;;;;;8380575;28;20207;-69
2022/06/27 05:34:07;;;;;;;9.90;7.70;;;26.20;99.90;;;;;;8374912;28;20196;-68
2022/06/27 05:38:08;;;;;;;8.38;6.88;;;25.90;99.90;;;;;;8374484;28;20218;-65
2022/06/27 05:42:09;;;;;;;7.30;6.53;;;25.80;99.90;;;;;;8369412;28;20181;-67
2022/06/27 05:46:10;;;;;;;10.20;7.67;;;25.80;99.90;;;;;;8370256;28;20216;-69
2022/06/27 05:50:12;;;;;;;9.07;7.07;;;25.80;99.90;;;;;;8379453;28;20174;-67
2022/06/27 05:54:14;;;;;;;11.03;7.43;;;25.80;99.90;;;;;;8366541;28;20523;-65
2022/06/27 05:58:15;;;;;;;8.47;7.57;;;26.00;99.90;;;;;;8372820;28;20177;-67
2022/06/27 06:02:16;;;;;;;8.23;7.40;;;26.00;99.90;;;;;;8387894;28;20201;-68
2022/06/27 06:06:17;;;;;;;8.27;7.47;;;26.20;99.90;;;;;;8384033;28;20200;-70
2022/06/27 06:10:19;;;;;;;9.87;8.03;;;26.30;99.90;;;;;;8374282;28;20579;-67
2022/06/27 06:14:21;;;;;;;8.00;7.20;;;26.50;99.90;;;;;;8367067;28;20181;-67
2022/06/27 06:18:23;;;;;;;8.75;6.43;;;26.60;99.90;;;;;;8371577;28;20229;-69
2022/06/27 06:22:24;;;;;;;7.18;6.50;;;26.80;99.90;;;;;;8368213;28;20209;-71
2022/06/27 06:26:25;;;;;;;7.72;6.93;;;26.90;99.90;;;;;;8364214;28;20265;-68
2022/06/27 06:30:26;;;;;;;8.10;6.90;;;27.00;99.90;;;;;;8373595;28;20204;-69
2022/06/27 06:34:27;;;;;;;13.63;9.07;;;27.10;99.90;;;;;;8376339;28;20189;-72
2022/06/27 06:38:29;;;;;;;8.68;7.88;;;27.40;99.90;;;;;;8373639;28;20364;-72
2022/06/27 06:42:30;;;;;;;8.63;7.50;;;27.50;99.90;;;;;;8380411;28;20213;-69
2022/06/27 06:46:34;;;;;;;8.75;6.65;;;27.70;99.90;;;;;;8374841;28;20191;-68
2022/06/27 06:50:35;;;;;;;6.72;6.03;;;27.70;99.90;;;;;;8374413;28;20205;-68
2022/06/27 06:54:37;;;;;;;6.18;5.43;;;27.90;99.90;;;;;;8373232;28;20181;-66
2022/06/27 06:58:38;;;;;;;10.15;6.13;;;28.10;99.90;;;;;;8368354;28;20189;-68
2022/06/27 07:02:39;;;;;;;7.13;5.85;;;28.20;99.90;;;;;;8370433;28;20215;-68
2022/06/27 07:06:40;;;;;;;6.40;5.10;;;28.20;99.90;;;;;;8383877;28;20402;-69
2022/06/27 07:10:41;;;;;;;7.35;5.40;;;28.40;97.70;;;;;;8374927;28;20185;-67
2022/06/27 07:14:42;;;;;;;5.45;4.88;;;28.50;70.10;;;;;;8367182;28;20182;-66
2022/06/27 07:18:44;;;;;;;7.20;5.30;;;28.60;46.20;;;;;;8375613;28;20224;-68
2022/06/27 07:22:49;;;;;;;6.50;5.72;;;28.60;50.60;;;;;;8370366;28;20233;-68
2022/06/27 07:26:51;;;;;;;7.30;5.65;;;28.60;89.90;;;;;;8365780;28;20182;-68
2022/06/27 07:30:53;;;;;;;5.60;5.10;;;28.80;61.60;;;;;;8372331;28;20282;-67
2022/06/27 07:34:54;;;;;;;9.93;5.22;;;29.00;24.20;;;;;;8372003;28;20195;-67
2022/06/27 07:38:55;;;;;;;6.18;4.55;;;29.10;8.10;;;;;;8372836;28;20189;-69
2022/06/27 07:42:56;;;;;;;5.05;3.90;;;29.20;1.00;;;;;;8371036;28;20204;-70
2022/06/27 07:46:57;;;;;;;4.45;4.05;;;29.50;1.00;;;;;;8371405;28;20198;-68
2022/06/27 07:50:58;;;;;;;6.40;4.90;;;29.60;1.00;;;;;;8375289;28;20215;-69
2022/06/27 07:55:00;;;;;;;5.35;4.22;;;29.80;1.00;;;;;;8369678;28;20248;-67
2022/06/27 07:59:05;;;;;;;4.82;4.43;;;29.90;1.00;;;;;;8369252;28;20185;-67
2022/06/27 08:03:36;;;;;;;5.80;4.85;;;30.00;1.00;;;;;;8378440;28;20241;-69
2022/06/27 08:07:26;;;;;;;6.38;4.78;;;30.20;1.00;;;;;;8369636;28;20178;-67
2022/06/27 08:11:31;;;;;;;6.07;4.57;;;30.40;1.00;;;;;;8369746;28;20490;-68
2022/06/27 08:15:32;;;;;;;6.65;4.63;;;30.50;1.00;;;;;;8373726;28;20204;-70
2022/06/27 08:19:33;;;;;;;9.50;4.65;;;30.50;1.00;;;;;;8378061;28;20187;-66
2022/06/27 08:23:36;;;;;;;5.55;4.40;;;30.60;1.00;;;;;;8373981;28;20205;-67
2022/06/27 08:27:37;;;;;;;5.60;5.00;;;30.70;1.00;;;;;;8374880;28;20208;-69
2022/06/27 08:31:39;;;;;;;8.48;4.72;;;30.90;1.00;;;;;;8370552;28;20175;-68
2022/06/27 08:35:44;;;;;;;4.80;4.40;;;31.10;1.00;;;;;;8378161;28;20182;-68
2022/06/27 08:39:45;;;;;;;4.70;3.78;;;31.20;1.00;;;;;;8370337;28;20587;-65
2022/06/27 08:43:48;;;;;;;5.45;4.45;;;31.30;1.00;;;;;;8372170;28;20206;-69
2022/06/27 08:47:50;;;;;;;6.75;3.67;;;31.40;1.00;;;;;;8368681;28;20190;-68
2022/06/27 08:51:51;;;;;;;5.97;3.50;;;31.60;1.00;;;;;;8369461;28;20645;-68
2022/06/27 08:55:52;;;;;;;6.47;3.90;;;31.60;1.00;;;;;;8376361;28;20177;-68
2022/06/27 08:59:54;;;;;;;6.47;4.45;;;31.60;1.00;;;;;;8373656;28;20268;-71
2022/06/27 09:04:00;;;;;;;5.95;4.18;;;31.70;1.00;;;;;;8372456;28;20204;-65
2022/06/27 09:08:08;;;;;;;4.47;4.10;;;31.90;1.00;;;;;;8373805;28;20177;-65
2022/06/27 09:12:10;;;;;;;5.88;3.85;;;31.90;1.00;;;;;;8378162;28;20177;-67
2022/06/27 09:16:12;;;;;;;4.03;3.63;;;31.90;1.00;;;;;;8367423;28;20181;-67
2022/06/27 09:20:13;;;;;;;4.57;3.92;;;32.00;1.00;;;;;;8374965;28;20177;-70
2022/06/27 09:24:14;;;;;;;6.22;4.53;;;32.10;1.00;;;;;;8375587;28;20211;-68
2022/06/27 09:28:15;;;;;;;5.97;4.18;;;32.10;1.00;;;;;;8367908;28;20204;-70
2022/06/27 09:32:25;;;;;;;11.90;4.75;;;32.10;1.00;;;;;;8374688;28;20181;-70
2022/06/27 09:36:28;;;;;;;6.20;3.78;;;32.30;1.00;;;;;;8376479;28;20182;-67
2022/06/27 09:40:32;;;;;;;5.70;3.90;;;32.40;1.00;;;;;;8373414;28;20216;-67
2022/06/27 09:44:39;;;;;;;4.57;3.67;;;32.50;1.00;;;;;;8375738;28;20211;-67
2022/06/27 09:48:44;;;;;;;7.03;3.67;;;32.60;1.00;;;;;;8376851;28;20181;-66
2022/06/27 09:52:45;;;;;;;8.23;3.50;;;32.60;1.00;;;;;;8376530;28;20178;-66
2022/06/27 09:56:50;;;;;;;5.82;3.70;;;32.70;1.00;;;;;;8374532;28;20188;-66
2022/06/27 10:00:51;;;;;;;5.93;3.25;;;32.80;1.00;;;;;;8375837;28;20188;-65
2022/06/27 10:04:52;;;;;;;5.80;3.40;;;32.80;1.00;;;;;;8368673;28;20249;-67
2022/06/27 10:08:53;;;;;;;4.25;2.72;;;33.00;1.00;;;;;;8370948;28;20177;-63
2022/06/27 10:13:02;;;;;;;3.63;2.70;;;33.10;1.00;;;;;;8372844;28;20198;-67
2022/06/27 10:17:07;;;;;;;4.32;3.30;;;33.20;1.00;;;;;;8374003;28;20239;-63
2022/06/27 10:21:27;;;;;;;5.55;2.92;;;33.30;1.00;;;;;;8369588;28;20182;-63
2022/06/27 10:25:28;;;;;;;6.70;4.00;;;33.50;1.00;;;;;;8376260;28;20209;-64
2022/06/27 10:29:34;;;;;;;4.85;3.28;;;33.50;1.00;;;;;;8367217;28;20193;-67
2022/06/27 10:33:35;;;;;;;4.25;2.90;;;33.50;1.00;;;;;;8366212;28;20181;-67
2022/06/27 10:37:39;;;;;;;6.38;3.42;;;33.40;1.00;;;;;;8374344;28;20182;-65
2022/06/27 10:41:41;;;;;;;3.00;2.70;;;33.50;1.00;;;;;;8372302;28;20264;-67
2022/06/27 10:45:42;;;;;;;5.50;3.00;;;33.60;1.00;;;;;;8371620;28;20210;-67
2022/06/27 10:49:42;;;;;;;7.93;3.25;;;33.60;1.00;;;;;;8373734;28;20185;-67
2022/06/27 10:53:44;;;;;;;2.88;2.00;;;33.60;1.00;;;;;;8367924;28;20185;-68
2022/06/27 10:57:45;;;;;;;2.55;2.30;;;33.80;1.00;;;;;;8374051;28;20184;-68
2022/06/27 11:01:57;;;;;;;3.70;1.95;;;33.80;1.00;;;;;;8372549;28;20182;-64
2022/06/27 11:06:03;;;;;;;3.03;2.13;;;34.00;1.00;;;;;;8373243;28;20236;-66
2022/06/27 11:10:05;;;;;;;2.00;1.70;;;34.00;1.00;;;;;;8373676;28;20170;-68
2022/06/27 11:14:08;;;;;;;4.25;1.80;;;34.10;1.00;;;;;;8370627;28;20174;-67
2022/06/27 11:18:09;;;;;;;5.13;2.10;;;34.20;1.00;;;;;;8367775;28;20178;-69
2022/06/27 11:22:22;;;;;;;2.03;1.80;;;34.30;1.00;;;;;;8369069;28;20222;-70
2022/06/27 11:26:32;;;;;;;4.85;2.00;;;34.40;1.00;;;;;;8362972;28;20174;-66
2022/06/27 11:34:56;;;;;;;5.50;1.88;;;34.60;1.00;;;;;;8370294;28;20252;-65
2022/06/27 11:38:57;;;;;;;2.50;1.90;;;34.90;1.00;;;;;;8365589;28;20189;-66
2022/06/27 11:42:58;;;;;;;2.63;2.42;;;34.90;1.00;;;;;;8372882;28;20300;-65
2022/06/27 11:47:07;;;;;;;2.28;1.98;;;34.70;1.00;;;;;;8372448;28;20188;-66
2022/06/27 11:51:21;;;;;;;2.20;2.00;;;34.70;1.00;;;;;;8372187;28;20185;-66
2022/06/27 11:55:26;;;;;;;2.47;1.90;;;34.60;1.00;;;;;;8373513;28;20188;-65
2022/06/27 11:59:28;;;;;;;2.08;1.80;;;34.70;1.00;;;;;;8373919;28;20210;-66
2022/06/27 12:03:28;;;;;;;3.67;1.70;;;34.70;1.00;;;;;;8368459;28;20216;-68
2022/06/27 12:07:29;;;;;;;5.47;1.60;;;34.80;1.00;;;;;;8370422;28;20177;-68
2022/06/27 12:11:32;;;;;;;2.83;1.30;;;35.00;1.00;;;;;;8367142;28;20178;-68
2022/06/27 12:15:35;;;;;;;2.38;1.60;;;35.00;1.00;;;;;;8364136;28;20252;-66
2022/06/27 12:19:36;;;;;;;3.00;1.85;;;35.20;1.00;;;;;;8376234;28;20186;-65
2022/06/27 12:23:38;;;;;;;1.85;1.30;;;35.20;1.00;;;;;;8380819;28;20213;-64
2022/06/27 12:27:41;;;;;;;3.20;1.13;;;35.00;1.00;;;;;;8371739;28;20236;-68
2022/06/27 12:31:42;;;;;;;13.57;2.25;;;35.20;1.00;;;;;;8380359;28;20182;-67
2022/06/27 12:35:43;;;;;;;1.30;1.20;;;35.40;1.00;;;;;;8374628;28;20185;-68
2022/06/27 12:39:43;;;;;;;3.17;1.63;;;35.30;1.00;;;;;;8373586;28;20205;-66
2022/06/27 12:43:45;;;;;;;3.17;1.23;;;35.30;1.00;;;;;;8371075;28;20248;-68
2022/06/27 12:47:46;;;;;;;5.00;1.65;;;35.00;1.00;;;;;;8372119;28;20187;-68
2022/06/27 12:51:48;;;;;;;2.22;1.65;;;35.10;1.00;;;;;;8373155;28;20174;-64
2022/06/27 12:55:49;;;;;;;3.80;1.30;;;35.50;1.00;;;;;;8364836;28;20216;-65
2022/06/27 12:59:51;;;;;;;1.40;1.02;;;35.60;1.00;;;;;;8372385;28;20178;-69
2022/06/27 13:03:52;;;;;;;3.03;0.88;;;35.80;1.00;;;;;;8374904;28;20225;-67
2022/06/27 13:07:53;;;;;;;3.58;1.00;;;35.90;1.00;;;;;;8369676;28;20174;-71
2022/06/27 13:11:54;;;;;;;1.45;1.23;;;36.10;1.00;;;;;;8367696;28;20277;-67
2022/06/27 13:15:54;;;;;;;1.75;1.30;;;35.80;1.00;;;;;;8373376;28;20193;-68
2022/06/27 13:19:55;;;;;;;1.60;1.30;;;35.50;1.00;;;;;;8364886;28;20181;-66
2022/06/27 13:23:56;;;;;;;2.05;1.42;;;35.50;1.00;;;;;;8363948;28;20387;-64
2022/06/27 13:27:57;;;;;;;1.20;1.10;;;35.60;1.00;;;;;;8371078;28;20198;-68
2022/06/27 13:31:57;;;;;;;4.82;1.20;;;36.10;1.00;;;;;;8377910;28;20261;-65
2022/06/27 13:35:59;;;;;;;1.73;1.15;;;36.30;1.00;;;;;;8376120;28;20638;-68
2022/06/27 13:39:59;;;;;;;1.52;1.10;;;36.30;1.00;;;;;;8371676;28;20181;-65
2022/06/27 13:44:00;;;;;;;1.33;1.05;;;36.50;1.00;;;;;;8372372;28;20224;-65
2022/06/27 13:48:01;;;;;;;1.63;1.00;;;36.40;1.00;;;;;;8372611;28;20272;-67
2022/06/27 13:52:02;;;;;;;1.77;1.23;;;36.20;1.00;;;;;;8368414;28;20178;-67
2022/06/27 13:56:04;;;;;;;1.23;0.90;;;36.10;1.00;;;;;;8361703;28;20182;-67
2022/06/27 14:00:06;;;;;;;0.95;0.85;;;36.20;1.00;;;;;;8373145;28;20186;-64
2022/06/27 14:04:07;;;;;;;3.58;0.88;;;36.20;1.00;;;;;;8371676;28;20209;-65
2022/06/27 14:08:08;;;;;;;3.45;0.98;;;36.10;1.00;;;;;;8372807;28;20184;-65
2022/06/27 14:12:08;;;;;;;3.20;0.80;;;36.00;1.00;;;;;;8370513;28;20180;-65
2022/06/27 14:16:09;;;;;;;1.98;1.00;;;36.10;1.00;;;;;;8366511;28;20186;-67
2022/06/27 14:20:13;;;;;;;2.83;1.00;;;36.20;1.00;;;;;;8374061;28;20208;-68
2022/06/27 14:24:14;;;;;;;2.13;0.90;;;36.20;1.00;;;;;;8365455;28;20197;-64
2022/06/27 14:28:15;;;;;;;1.10;0.93;;;36.10;1.00;;;;;;8366304;28;20197;-67
2022/06/27 14:32:16;;;;;;;3.28;1.20;;;36.00;1.00;;;;;;8371025;28;20272;-65
2022/06/27 14:36:17;;;;;;;2.30;1.10;;;36.00;1.00;;;;;;8375413;28;20181;-65
2022/06/27 14:40:18;;;;;;;1.42;1.05;;;36.10;1.00;;;;;;8369089;28;20174;-67
2022/06/27 14:44:19;;;;;;;1.30;1.10;;;36.00;1.00;;;;;;8372619;28;20293;-68
2022/06/27 14:48:20;;;;;;;2.60;0.90;;;35.90;1.00;;;;;;8380627;28;20182;-64
2022/06/27 14:52:21;;;;;;;1.85;1.00;;;35.80;1.00;;;;;;8376047;28;20204;-66
2022/06/27 14:56:21;;;;;;;3.90;0.98;;;35.80;1.00;;;;;;8369605;28;20173;-67
2022/06/27 15:00:22;;;;;;;2.40;1.10;;;35.70;1.00;;;;;;8370824;28;20185;-67
2022/06/27 15:04:23;;;;;;;1.40;1.05;;;35.60;1.00;;;;;;8369184;28;20237;-64
2022/06/27 15:08:24;;;;;;;1.80;0.90;;;35.50;1.00;;;;;;8371980;28;20201;-66
2022/06/27 15:12:24;;;;;;;1.30;0.88;;;35.50;1.00;;;;;;8368472;28;20204;-68
2022/06/27 15:16:45;;;;;;;1.30;0.85;;;35.40;1.00;;;;;;8376123;28;20478;-67
2022/06/27 15:20:46;;;;;;;3.05;0.98;;;35.40;1.00;;;;;;8364602;28;20181;-65
2022/06/27 15:24:47;;;;;;;2.35;1.05;;;35.50;1.00;;;;;;8366604;28;20205;-65
2022/06/27 15:28:48;;;;;;;3.42;1.30;;;35.60;1.00;;;;;;8371815;28;20225;-68
2022/06/27 15:32:48;;;;;;;1.30;0.93;;;35.60;1.00;;;;;;8373601;28;20177;-67
2022/06/27 15:36:49;;;;;;;1.33;1.20;;;35.60;1.00;;;;;;8366960;28;20268;-65
2022/06/27 15:40:50;;;;;;;1.10;0.90;;;35.70;1.00;;;;;;8373508;28;20678;-68
2022/06/27 15:44:51;;;;;;;1.52;1.08;;;35.60;1.00;;;;;;8370437;28;20205;-67
2022/06/27 15:48:52;;;;;;;2.63;1.20;;;35.50;1.00;;;;;;8368156;28;20205;-65
2022/06/27 15:52:53;;;;;;;1.73;1.10;;;35.30;1.00;;;;;;8367808;28;20204;-67
2022/06/27 15:56:54;;;;;;;1.45;1.10;;;35.20;1.00;;;;;;8371112;28;21055;-68
2022/06/27 16:00:55;;;;;;;1.23;1.00;;;35.20;1.00;;;;;;8383583;28;20188;-64
2022/06/27 16:04:55;;;;;;;3.15;1.10;;;35.20;1.00;;;;;;8382162;28;20299;-66
2022/06/27 16:08:56;;;;;;;1.33;1.10;;;35.20;1.00;;;;;;8380180;28;20185;-67
2022/06/27 16:12:57;;;;;;;1.60;1.05;;;35.20;1.00;;;;;;8376624;28;20256;-66
2022/06/27 16:16:58;;;;;;;1.38;1.13;;;35.10;1.00;;;;;;8374527;28;20216;-67
2022/06/27 16:21:02;;;;;;;1.00;0.90;;;35.10;1.00;;;;;;8372865;28;20192;-66
2022/06/27 16:25:03;;;;;;;3.42;1.30;;;35.20;1.00;;;;;;8374170;28;20270;-70
2022/06/27 16:29:04;;;;;;;1.45;1.15;;;35.10;1.00;;;;;;8377505;28;20193;-65
2022/06/27 16:33:05;;;;;;;4.53;1.23;;;35.10;1.00;;;;;;8382095;28;20181;-67
2022/06/27 16:37:06;;;;;;;1.80;0.90;;;35.00;1.00;;;;;;8383107;28;20199;-66
2022/06/27 16:41:06;;;;;;;1.20;1.08;;;34.80;1.00;;;;;;8376931;28;20185;-67
2022/06/27 16:45:08;;;;;;;2.42;1.10;;;34.70;1.00;;;;;;8371533;28;20202;-65
2022/06/27 16:49:09;;;;;;;1.70;1.08;;;34.70;1.00;;;;;;8381768;28;20172;-68
2022/06/27 16:53:11;;;;;;;2.60;1.00;;;34.50;1.00;;;;;;8376843;28;20185;-65
2022/06/27 16:57:12;;;;;;;1.88;1.30;;;34.40;1.00;;;;;;8381323;28;20283;-65
2022/06/27 17:01:14;;;;;;;2.92;1.30;;;34.40;1.00;;;;;;8378970;28;20186;-64
2022/06/27 17:05:15;;;;;;;4.25;1.23;;;34.30;1.00;;;;;;8376944;28;20232;-67
2022/06/27 17:09:16;;;;;;;2.15;1.30;;;34.20;1.00;;;;;;8378545;28;20196;-66
2022/06/27 17:13:17;;;;;;;2.80;1.30;;;34.20;1.00;;;;;;8376846;28;20276;-65
2022/06/27 17:17:18;;;;;;;6.72;1.40;;;34.00;1.00;;;;;;8379988;28;20178;-65
2022/06/27 17:21:19;;;;;;;2.58;1.55;;;33.90;1.00;;;;;;8374787;28;20186;-66
2022/06/27 17:25:19;;;;;;;2.72;1.38;;;33.80;1.00;;;;;;8375289;28;20201;-65
2022/06/27 17:29:20;;;;;;;1.67;1.30;;;33.60;1.00;;;;;;8373400;28;20198;-66
2022/06/27 17:33:22;;;;;;;1.85;1.48;;;33.40;1.00;;;;;;8374765;28;20182;-67
2022/06/27 17:37:22;;;;;;;4.70;1.63;;;33.20;1.00;;;;;;8377906;28;20507;-69
2022/06/27 17:41:23;;;;;;;2.30;1.45;;;33.10;1.00;;;;;;8371433;28;20249;-65
2022/06/27 17:45:24;;;;;;;1.65;1.40;;;32.90;1.00;;;;;;8371818;28;20225;-64
2022/06/27 17:49:25;;;;;;;3.40;1.83;;;32.60;1.00;;;;;;8378844;28;20181;-67
2022/06/27 17:53:26;;;;;;;2.88;1.50;;;32.50;1.00;;;;;;8379989;28;20187;-64
2022/06/27 17:57:27;;;;;;;2.65;1.60;;;32.40;1.00;;;;;;8380402;28;20185;-65
2022/06/27 18:01:28;;;;;;;3.88;1.70;;;32.20;1.00;;;;;;8384661;28;20177;-66
2022/06/27 18:05:28;;;;;;;2.00;1.80;;;32.00;1.00;;;;;;8373174;28;20234;-68
2022/06/27 18:09:29;;;;;;;2.40;1.90;;;31.80;1.00;;;;;;8376691;28;20174;-65
2022/06/27 18:13:31;;;;;;;3.40;1.73;;;31.80;1.00;;;;;;8379494;28;20236;-66
2022/06/27 18:17:32;;;;;;;3.85;2.00;;;31.60;1.00;;;;;;8368447;28;20214;-65
2022/06/27 18:21:33;;;;;;;3.03;1.90;;;31.40;1.00;;;;;;8368850;28;20181;-65
2022/06/27 18:25:35;;;;;;;3.75;2.15;;;31.20;1.00;;;;;;8369379;28;20209;-63
2022/06/27 18:29:38;;;;;;;2.67;1.83;;;31.10;1.00;;;;;;8369099;28;20231;-65
2022/06/27 18:33:38;;;;;;;4.90;1.90;;;30.80;1.00;;;;;;8386171;28;20234;-65
2022/06/27 18:37:39;;;;;;;4.07;2.38;;;30.70;1.00;;;;;;8376931;28;20181;-68
2022/06/27 18:41:40;;;;;;;2.15;1.70;;;30.50;1.00;;;;;;8381657;28;20193;-67
2022/06/27 18:45:42;;;;;;;4.40;1.85;;;30.40;1.00;;;;;;8376727;28;20214;-66
2022/06/27 18:49:42;;;;;;;6.55;2.20;;;30.40;1.00;;;;;;8372471;28;20186;-65
2022/06/27 18:53:45;;;;;;;2.10;1.80;;;30.60;1.00;;;;;;8373755;28;20188;-67
2022/06/27 18:57:46;;;;;;;4.43;2.20;;;30.70;1.00;;;;;;8371716;28;20186;-66
2022/06/27 19:01:48;;;;;;;2.17;1.98;;;30.70;1.00;;;;;;8372878;28;20205;-64
2022/06/27 19:05:49;;;;;;;4.20;2.15;;;30.40;1.00;;;;;;8379069;28;20209;-69
2022/06/27 19:09:49;;;;;;;4.95;2.20;;;30.00;1.00;;;;;;8369903;28;20256;-67
2022/06/27 19:13:51;;;;;;;2.10;1.55;;;29.20;1.00;;;;;;8376479;28;20226;-70
2022/06/27 19:17:53;;;;;;;3.58;2.15;;;28.80;3.90;;;;;;8372475;28;20173;-67
2022/06/27 19:21:54;;;;;;;2.33;1.95;;;28.50;13.00;;;;;;8371964;28;20182;-66
2022/06/27 19:25:55;;;;;;;2.10;1.90;;;28.40;20.40;;;;;;8369653;28;20205;-67
2022/06/27 19:29:56;;;;;;;2.30;1.90;;;28.30;27.30;;;;;;8368827;28;20196;-66
2022/06/27 19:33:57;;;;;;;2.05;1.70;;;28.20;43.30;;;;;;8372503;28;20188;-66
2022/06/27 19:37:57;;;;;;;2.63;2.00;;;28.10;93.20;;;;;;8372493;28;20192;-66
2022/06/27 19:41:58;;;;;;;2.83;1.98;;;27.80;99.90;;;;;;8367725;28;20173;-63
2022/06/27 19:45:59;;;;;;;2.25;2.05;;;27.60;99.90;;;;;;8369035;28;20205;-64
2022/06/27 19:50:00;;;;;;;3.03;2.33;;;27.50;99.90;;;;;;8374239;28;20182;-67
2022/06/27 19:54:01;;;;;;;3.35;2.25;;;27.40;99.90;;;;;;8371626;28;20185;-65
2022/06/27 19:58:03;;;;;;;2.78;2.42;;;27.30;99.90;;;;;;8374796;28;20196;-65
2022/06/27 20:02:05;;;;;;;2.88;2.63;;;27.20;99.90;;;;;;8368503;28;20234;-65
2022/06/27 20:06:06;;;;;;;5.57;2.73;;;27.10;99.90;;;;;;8373497;28;20217;-65
2022/06/27 20:10:11;;;;;;;6.10;3.20;;;27.00;99.90;;;;;;8366580;28;20250;-66
2022/06/27 20:14:12;;;;;;;5.47;3.38;;;26.80;99.90;;;;;;8378286;28;20248;-65
2022/06/27 20:18:13;;;;;;;4.43;3.00;;;26.60;99.90;;;;;;8366169;28;20290;-66
2022/06/27 20:22:14;;;;;;;4.43;2.90;;;26.40;99.90;;;;;;8373311;28;20181;-65
2022/06/27 20:26:15;;;;;;;2.67;2.40;;;26.20;99.90;;;;;;8368331;28;20208;-65
2022/06/27 20:30:17;;;;;;;8.17;4.67;;;26.00;99.90;;;;;;8373147;28;20201;-66
2022/06/27 20:34:17;;;;;;;5.60;4.80;;;25.90;99.90;;;;;;8374194;28;20181;-65
2022/06/27 20:38:20;;;;;;;7.90;3.80;;;25.80;99.90;;;;;;8362841;28;20189;-65
2022/06/27 20:42:21;;;;;;;4.07;3.03;;;25.70;99.90;;;;;;8364293;28;20189;-64
2022/06/27 20:46:22;;;;;;;4.33;3.00;;;25.50;1.00;;;;;;8377861;28;20245;-65
2022/06/27 20:50:23;;;;;;;4.50;2.90;;;25.40;1.00;;;;;;8376087;28;20247;-65
2022/06/27 20:54:24;;;;;;;4.33;3.13;;;25.20;1.00;;;;;;8371739;28;20186;-64
2022/06/27 20:58:25;;;;;;;6.20;3.03;;;25.10;1.00;;;;;;8381875;28;20240;-65
2022/06/27 21:02:26;;;;;;;4.70;2.73;;;25.00;1.00;;;;;;8375652;28;20185;-65
2022/06/27 21:06:27;;;;;;;2.87;2.57;;;24.90;1.00;;;;;;8375941;28;20293;-65
2022/06/27 21:14:48;;;;;;;3.77;2.50;;;24.80;1.00;;;;;;8374903;28;20216;-65
2022/06/27 21:18:49;;;;;;;6.20;3.43;;;24.70;1.00;;;;;;8372348;28;20178;-66